Impacts METAR Board
IDs:

KSEA - Seattle-Tacoma Intl, WA, US

Updated at: 1400 UTC 13 Dec 2018
Potential Impact None Slight Moderate High
Time 13/02Z 13/03Z 13/04Z 13/05Z 13/06Z 13/07Z 13/08Z 13/09Z 13/10Z 13/11Z 13/12Z 13/13Z 13/14Z
Temp47 46 46 45 45 44 45 45 45 46 45 45 46
Dewpt39 38 39 40 41 41 40 40 39 39 40 40 40
Altim30.19 30.18 30.16 30.16 30.15 30.13 30.10 30.08 30.06 30.06 30.04 30.04 30.04
VIS7 10 9 9 10 9 10 10 10 10 10 6 5
CIG90 33 35 42 32 30 30 31 31 30 31 30 30
CoverOVCOVCOVCOVCOVCOVCOVCOVCOVCOVCOVCOVCOVC
FltCatVFRVFRVFRVFRVFRMVFRMVFRVFRVFRMVFRVFRMVFRMVFR
WX-RA-RA-RA-RA-RA-RA-RA-RA---RA-RA-RA-RA
WDir170170160170170170170180180190180180190
WSpd11 10 10 10 8 9 11 11 12 13 16 11 11
WGst-- 18 -- -- -- -- -- -- -- -- 22 -- --
Raw hourly METARs
KSEA 130153Z 17011KT 7SM -RA SCT041 BKN090 OVC160 08/04 A3019 RMK AO2 RAB46 SLP231 P0001 T00830039
KSEA 130253Z 17010G18KT 10SM -RA BKN033 BKN042 OVC050 08/03 A3018 RMK AO2 SLP228 P0000 60001 T00780033 58011
KSEA 130353Z 16010KT 9SM -RA BKN035 OVC043 08/04 A3016 RMK AO2 SLP222 P0001 T00780039
KSEA 130453Z 17010KT 9SM -RA SCT032 OVC042 07/04 A3016 RMK AO2 RAE23B47 SLP220 P0000 T00720044
KSEA 130553Z 17008KT 10SM -RA OVC032 07/05 A3015 RMK AO2 SLP217 P0001 60003 T00720050 10094 20072 56010
KSEA 130653Z 17009KT 9SM -RA OVC030 07/05 A3013 RMK AO2 SLP211 P0001 T00670050
KSEA 130753Z 17011KT 10SM -RA OVC030 07/04 A3010 RMK AO2 SLP201 P0003 T00720044 400940039
KSEA 130853Z 18011KT 10SM -RA OVC031 07/04 A3008 RMK AO2 SLP195 P0002 60006 T00720044 56021
KSEA 130953Z 18012KT 10SM OVC031 07/04 A3006 RMK AO2 RAE49 SLP187 P0001 T00720039
KSEA 131053Z 19013KT 10SM -RA OVC030 08/04 A3006 RMK AO2 RAB39 SLP187 P0001 T00780039
KSEA 131153Z 18016G22KT 10SM -RA OVC031 07/04 A3004 RMK AO2 SLP181 P0002 60010 70013 T00720044 10078 20067 56013
KSEA 131253Z 18011KT 6SM -RA OVC030 07/04 A3004 RMK AO2 SLP181 P0005 T00720044
KSEA 131353Z 19011KT 5SM -RA BKN030 OVC042 08/04 A3004 RMK AO2 SLP178 P0003 T00780044



Page loaded:  14:24 UTC  |   06:24 AM Pacific  |   07:24 AM Mountain  |   08:24 AM Central  |   09:24 AM Eastern

 

ADVISORIES

FORECASTS

FORECASTS

OBSERVATIONS

USER TOOLS

ABOUT US